M\v Black Rhino — V7TR7 — position and weather

sailwx.info

Track history (hours):
 
Tides and Currents Weather Stations Pressure Air Temp Water Temp Dewpoint Dewpoint Depression Visibility Wind Speed Wind Dir Waves Ship Positions

M\v Black Rhino

Last reported at 2014-Jul-17 04:16 UTC. Time now 2014-Jul-22 23:15 UTC.
Position S 28°36' E 032°32'.

Length 100 m; draft 5.4 m.

Type: Cargo ship. MMSI: 538090408.

Date/timePositionNaut miles runAvg speedWind from/ knotsBaromVisibWave heightAir tempDewpointWater temp
2014-Jul-17 04:16S 28°36' E 032°32'6 7.8
2014-Jul-17 03:32S 28°41' E 032°30'9 8.7
2014-Jul-17 02:33S 28°47' E 032°23'9 9.1
2014-Jul-17 01:33S 28°53' E 032°15'9 9.3
2014-Jul-17 00:33S 28°60' E 032°07'1010.4
2014-Jul-16 23:33S 29°07' E 031°59'1010.5
2014-Jul-16 22:33S 29°14' E 031°50'1010.4
2014-Jul-16 21:33S 29°21' E 031°41'1010.3
2014-Jul-16 20:33S 29°28' E 031°32'1110.8
2014-Jul-16 19:33S 29°35' E 031°23'1110.7
2014-Jul-16 18:30S 29°44' E 031°15'1010.6
2014-Jul-16 17:33S 29°51' E 031°06'4 3.8
2014-Jul-16 16:32S 29°52' E 031°03'0 0.0
2014-Jul-16 15:32S 29°52' E 031°03'0 0.0
2014-Jul-16 14:32S 29°52' E 031°03'0 0.0
2014-Jul-16 13:32S 29°52' E 031°03'0 0.0
2014-Jul-16 12:26S 29°52' E 031°03'0 0.0
2014-Jul-16 11:08S 29°52' E 031°03'0 0.0
2014-Jul-16 10:32S 29°52' E 031°03'0 0.0
2014-Jul-16 09:32S 29°52' E 031°03'0 0.0
2014-Jul-16 08:32S 29°52' E 031°03'0 0.0
2014-Jul-16 07:32S 29°52' E 031°03'0 0.0
2014-Jul-16 06:26S 29°52' E 031°03'0 0.0
2014-Jul-16 05:32S 29°52' E 031°03'0 0.0
2014-Jul-16 04:32S 29°52' E 031°03'0 0.0
2014-Jul-16 03:32S 29°52' E 031°03'0 0.0
2014-Jul-16 02:32S 29°52' E 031°03'0 0.0
2014-Jul-16 01:32S 29°52' E 031°03'0 0.0
2014-Jul-16 00:32S 29°52' E 031°03'0 0.0
2014-Jul-15 23:26S 29°52' E 031°03'0 0.0
2014-Jul-15 22:32S 29°52' E 031°03'0 0.0
2014-Jul-15 21:32S 29°52' E 031°03'0 0.0
2014-Jul-15 20:32S 29°52' E 031°03'0 0.0
2014-Jul-15 19:32S 29°52' E 031°03'0 0.0
2014-Jul-15 18:32S 29°52' E 031°03'0 0.0
2014-Jul-15 17:08S 29°52' E 031°03'0 0.0
2014-Jul-15 16:32S 29°52' E 031°03'0 0.0
2014-Jul-15 15:32S 29°52' E 031°03'0 0.0
2014-Jul-15 14:33S 29°52' E 031°03'0 0.2
2014-Jul-15 13:33S 29°52' E 031°03'0 0.0
2014-Jul-15 12:33S 29°52' E 031°03'0 0.0
2014-Jul-15 11:33S 29°52' E 031°03'0 0.0
2014-Jul-15 10:33S 29°52' E 031°03'0 0.0
2014-Jul-15 09:33S 29°52' E 031°03'0 0.0
2014-Jul-15 08:33S 29°52' E 031°03'0 0.0
2014-Jul-15 07:33S 29°52' E 031°03'0 0.0
2014-Jul-15 06:33S 29°52' E 031°03'0 0.0
2014-Jul-15 05:33S 29°52' E 031°03'0 0.0
2014-Jul-15 04:33S 29°52' E 031°03'0 0.0
2014-Jul-15 03:33S 29°52' E 031°03'0 0.0
2014-Jul-15 02:33S 29°52' E 031°03'0 0.0
2014-Jul-15 01:33S 29°52' E 031°03'0 0.0
2014-Jul-15 00:33S 29°52' E 031°03'0 0.0
2014-Jul-14 23:33S 29°52' E 031°03'0 0.0
2014-Jul-14 22:33S 29°52' E 031°03'0 0.0
2014-Jul-14 21:33S 29°52' E 031°03'0 0.0
2014-Jul-14 20:33S 29°52' E 031°03'0 0.0
2014-Jul-14 19:33S 29°52' E 031°03'0 0.0
2014-Jul-14 18:33S 29°52' E 031°03'0 0.0
2014-Jul-14 17:33S 29°52' E 031°03'0 0.0
2014-Jul-14 16:33S 29°52' E 031°03'0 0.0
2014-Jul-14 15:33S 29°52' E 031°03'0 0.0
2014-Jul-14 14:33S 29°52' E 031°03'0 0.0
2014-Jul-14 13:33S 29°52' E 031°03'0 0.0
2014-Jul-14 12:33S 29°52' E 031°03'0 0.0
2014-Jul-14 11:33S 29°52' E 031°03'0 0.0
2014-Jul-14 10:33S 29°52' E 031°03'0 0.0
2014-Jul-14 09:33S 29°52' E 031°03'0 0.0
2014-Jul-14 08:33S 29°52' E 031°03'0 0.0
2014-Jul-14 07:33S 29°52' E 031°03'0 0.0
2014-Jul-14 06:33S 29°52' E 031°03'0 0.0
2014-Jul-14 05:33S 29°52' E 031°03'0 0.0
2014-Jul-14 04:33S 29°52' E 031°03'0 0.0
2014-Jul-14 03:33S 29°52' E 031°03'0 0.0
2014-Jul-14 02:33S 29°52' E 031°03'0 0.0
2014-Jul-14 01:33S 29°52' E 031°03'0 0.0
2014-Jul-14 00:33S 29°52' E 031°03'2 2.5
2014-Jul-13 23:33S 29°50' E 031°04'9 8.6
2014-Jul-13 22:33S 29°45' E 031°12'1111.3
2014-Jul-13 21:33S 29°37' E 031°22'1111.1
2014-Jul-13 20:33S 29°30' E 031°31'6111.4
2014-Jul-13 15:12S 28°48' E 032°22'  
Track history (hours):
 
Tides and Currents Weather Stations Pressure Air Temp Water Temp Dewpoint Dewpoint Depression Visibility Wind Speed Wind Dir Waves Ship Positions

M\v Black Rhino

Last reported at 2014-Jul-17 04:16 UTC. Time now 2014-Jul-22 23:15 UTC.
Position S 28°36' E 032°32'.

Length 100 m; draft 5.4 m.

Type: Cargo ship. MMSI: 538090408.

Date/timePositionNaut miles runAvg speedWind from/ knotsBaromVisibWave heightAir tempDewpointWater temp
2014-Jul-17 04:16S 28°36' E 032°32'6 7.8
2014-Jul-17 03:32S 28°41' E 032°30'9 8.7
2014-Jul-17 02:33S 28°47' E 032°23'9 9.1
2014-Jul-17 01:33S 28°53' E 032°15'9 9.3
2014-Jul-17 00:33S 28°60' E 032°07'1010.4
2014-Jul-16 23:33S 29°07' E 031°59'1010.5
2014-Jul-16 22:33S 29°14' E 031°50'1010.4
2014-Jul-16 21:33S 29°21' E 031°41'1010.3
2014-Jul-16 20:33S 29°28' E 031°32'1110.8
2014-Jul-16 19:33S 29°35' E 031°23'1110.7
2014-Jul-16 18:30S 29°44' E 031°15'1010.6
2014-Jul-16 17:33S 29°51' E 031°06'4 3.8
2014-Jul-16 16:32S 29°52' E 031°03'0 0.0
2014-Jul-16 15:32S 29°52' E 031°03'0 0.0
2014-Jul-16 14:32S 29°52' E 031°03'0 0.0
2014-Jul-16 13:32S 29°52' E 031°03'0 0.0
2014-Jul-16 12:26S 29°52' E 031°03'0 0.0
2014-Jul-16 11:08S 29°52' E 031°03'0 0.0
2014-Jul-16 10:32S 29°52' E 031°03'0 0.0
2014-Jul-16 09:32S 29°52' E 031°03'0 0.0
2014-Jul-16 08:32S 29°52' E 031°03'0 0.0
2014-Jul-16 07:32S 29°52' E 031°03'0 0.0
2014-Jul-16 06:26S 29°52' E 031°03'0 0.0
2014-Jul-16 05:32S 29°52' E 031°03'0 0.0
2014-Jul-16 04:32S 29°52' E 031°03'0 0.0
2014-Jul-16 03:32S 29°52' E 031°03'0 0.0
2014-Jul-16 02:32S 29°52' E 031°03'0 0.0
2014-Jul-16 01:32S 29°52' E 031°03'0 0.0
2014-Jul-16 00:32S 29°52' E 031°03'0 0.0
2014-Jul-15 23:26S 29°52' E 031°03'0 0.0
2014-Jul-15 22:32S 29°52' E 031°03'0 0.0
2014-Jul-15 21:32S 29°52' E 031°03'0 0.0
2014-Jul-15 20:32S 29°52' E 031°03'0 0.0
2014-Jul-15 19:32S 29°52' E 031°03'0 0.0
2014-Jul-15 18:32S 29°52' E 031°03'0 0.0
2014-Jul-15 17:08S 29°52' E 031°03'0 0.0
2014-Jul-15 16:32S 29°52' E 031°03'0 0.0
2014-Jul-15 15:32S 29°52' E 031°03'0 0.0
2014-Jul-15 14:33S 29°52' E 031°03'0 0.2
2014-Jul-15 13:33S 29°52' E 031°03'0 0.0
2014-Jul-15 12:33S 29°52' E 031°03'0 0.0
2014-Jul-15 11:33S 29°52' E 031°03'0 0.0
2014-Jul-15 10:33S 29°52' E 031°03'0 0.0
2014-Jul-15 09:33S 29°52' E 031°03'0 0.0
2014-Jul-15 08:33S 29°52' E 031°03'0 0.0
2014-Jul-15 07:33S 29°52' E 031°03'0 0.0
2014-Jul-15 06:33S 29°52' E 031°03'0 0.0
2014-Jul-15 05:33S 29°52' E 031°03'0 0.0
2014-Jul-15 04:33S 29°52' E 031°03'0 0.0
2014-Jul-15 03:33S 29°52' E 031°03'0 0.0
2014-Jul-15 02:33S 29°52' E 031°03'0 0.0
2014-Jul-15 01:33S 29°52' E 031°03'0 0.0
2014-Jul-15 00:33S 29°52' E 031°03'0 0.0
2014-Jul-14 23:33S 29°52' E 031°03'0 0.0
2014-Jul-14 22:33S 29°52' E 031°03'0 0.0
2014-Jul-14 21:33S 29°52' E 031°03'0 0.0
2014-Jul-14 20:33S 29°52' E 031°03'0 0.0
2014-Jul-14 19:33S 29°52' E 031°03'0 0.0
2014-Jul-14 18:33S 29°52' E 031°03'0 0.0
2014-Jul-14 17:33S 29°52' E 031°03'0 0.0
2014-Jul-14 16:33S 29°52' E 031°03'0 0.0
2014-Jul-14 15:33S 29°52' E 031°03'0 0.0
2014-Jul-14 14:33S 29°52' E 031°03'0 0.0
2014-Jul-14 13:33S 29°52' E 031°03'0 0.0
2014-Jul-14 12:33S 29°52' E 031°03'0 0.0
2014-Jul-14 11:33S 29°52' E 031°03'0 0.0
2014-Jul-14 10:33S 29°52' E 031°03'0 0.0
2014-Jul-14 09:33S 29°52' E 031°03'0 0.0
2014-Jul-14 08:33S 29°52' E 031°03'0 0.0
2014-Jul-14 07:33S 29°52' E 031°03'0 0.0
2014-Jul-14 06:33S 29°52' E 031°03'0 0.0
2014-Jul-14 05:33S 29°52' E 031°03'0 0.0
2014-Jul-14 04:33S 29°52' E 031°03'0 0.0
2014-Jul-14 03:33S 29°52' E 031°03'0 0.0
2014-Jul-14 02:33S 29°52' E 031°03'0 0.0
2014-Jul-14 01:33S 29°52' E 031°03'0 0.0
2014-Jul-14 00:33S 29°52' E 031°03'2 2.5
2014-Jul-13 23:33S 29°50' E 031°04'9 8.6
2014-Jul-13 22:33S 29°45' E 031°12'1111.3
2014-Jul-13 21:33S 29°37' E 031°22'1111.1
2014-Jul-13 20:33S 29°30' E 031°31'6111.4
2014-Jul-13 15:12S 28°48' E 032°22'  

Dump ship's entire track history